Data for 03/26/2014

Time Sea-Level Adjusted Pressure Absolute Pressure Temperature Relative Humidity Dew Point   
(mb) (inHg) (mb) (inHg) (C) (F) (%) (C) (F)
00:05 1004 29.65 833 24.6 6.6 43.9 37 -7.2 19.1
00:10 1004 29.65 833 24.6 6.6 43.9 37 -6.9 19.6
00:15 1004 29.65 833 24.6 6.7 44.1 36 -7.4 18.6
00:20 1004 29.65 833 24.6 7 44.6 33 -8.1 17.4
00:25 1004 29.65 833 24.6 7.3 45.1 32 -8.4 16.9
00:30 1004 29.65 833 24.6 7.2 44.9 37 -6.6 20.1
00:35 1004 29.65 833 24.6 6.4 43.5 40 -6.3 20.6
00:40 1004 29.65 833 24.6 6.3 43.4 37 -7.3 18.9
00:45 1004 29.65 833 24.6 6.6 43.9 33 -8.4 16.8
00:50 1004 29.65 833 24.6 7 44.6 34 -7.8 17.9
00:55 1004 29.65 833 24.6 7 44.6 33 -8.2 17.3
01:00 1004 29.65 833 24.6 7.1 44.8 32 -8.5 16.7
01:05 1004 29.65 833 24.6 7.1 44.7 36 -6.9 19.7
01:10 1004 29.65 833 24.6 6.5 43.6 40 -6.2 20.8
01:15 1004 29.65 833 24.6 6.2 43.2 40 -6.5 20.3
01:20 1003 29.62 833 24.6 6.2 43.2 40 -6.2 20.8
01:25 1003 29.62 833 24.6 6.3 43.3 40 -6.3 20.6
01:30 1003 29.62 832 24.57 6.1 43 40 -6.5 20.4
01:35 1003 29.62 832 24.57 6.3 43.4 38 -7.1 19.2
01:40 1003 29.62 832 24.57 6.5 43.6 34 -8.5 16.8
01:45 1003 29.62 832 24.57 6.8 44.2 35 -7.6 18.4
01:50 1003 29.62 832 24.57 6.5 43.7 38 -6.9 19.6
01:55 1003 29.62 832 24.57 6.1 42.9 39 -6.7 19.9
02:00 1003 29.62 832 24.57 6.1 42.9 39 -6.9 19.5
02:05 1003 29.62 832 24.57 6.2 43.1 40 -6.6 20.2
02:10 1003 29.62 832 24.57 6 42.8 40 -6.7 19.9
02:15 1003 29.62 832 24.57 5.8 42.5 37 -7.9 17.8
02:20 1003 29.62 832 24.57 6.1 43.1 37 -7.5 18.5
02:25 1003 29.62 832 24.57 6.2 43.1 32 -9.5 14.9
02:30 1003 29.62 832 24.57 7.1 44.7 33 -8 17.7
02:35 1003 29.62 832 24.57 6.5 43.7 37 -7.2 19
02:40 1003 29.62 832 24.57 5.8 42.5 43 -5.7 21.8
02:45 1003 29.62 832 24.57 5.3 41.5 45 -5.8 21.5
02:50 1003 29.62 832 24.57 5 41.1 46 -5.7 21.7
02:55 1003 29.62 832 24.57 4.7 40.5 46 -5.9 21.3
03:00 1003 29.62 832 24.57 4.8 40.6 43 -6.7 19.9
03:05 1003 29.62 832 24.57 5.2 41.3 42 -6.8 19.8
03:10 1003 29.62 832 24.57 5.1 41.2 48 -4.9 23.2
03:15 1003 29.62 832 24.57 4.6 40.2 45 -6.3 20.7
03:20 1003 29.62 832 24.57 4.9 40.9 43 -6.6 20.1
03:25 1003 29.62 832 24.57 5.2 41.4 41 -6.9 19.6
03:30 1003 29.62 832 24.57 5.5 41.8 40 -7.2 19.1
03:35 1003 29.62 832 24.57 5.5 41.9 45 -5.5 22.2
03:40 1003 29.62 832 24.57 4.8 40.7 49 -5.1 22.8
03:45 1003 29.62 832 24.57 4.6 40.3 47 -5.8 21.6
03:50 1003 29.62 832 24.57 4.8 40.7 46 -5.8 21.6
03:55 1003 29.62 832 24.57 4.8 40.7 46 -5.8 21.6
04:00 1003 29.62 833 24.6 5 41.1 44 -6.1 21
04:05 1003 29.62 833 24.6 5.4 41.7 44 -5.9 21.3
04:10 1004 29.65 833 24.6 5.4 41.8 56 -2.7 27.1
04:15 1004 29.65 833 24.6 5 40.9 62 -1.8 28.8
04:20 1004 29.65 833 24.6 4.7 40.4 62 -1.9 28.6
04:25 1004 29.65 833 24.6 4.7 40.5 62 -2 28.5
04:30 1004 29.65 833 24.6 4.6 40.3 66 -1.2 29.8
04:35 1004 29.65 833 24.6 4.1 39.4 71 -0.6 30.8
04:40 1004 29.65 833 24.6 3.5 38.3 71 -1.2 29.9
04:45 1004 29.65 833 24.6 3.3 37.9 78 -0.3 31.5
04:50 1004 29.65 834 24.63 2.9 37.3 80 -0.2 31.6
04:55 1004 29.65 834 24.63 2.8 37 82 -0.1 31.9
05:00 1004 29.65 834 24.63 2.6 36.7 83 -0 32
05:05 1004 29.65 833 24.6 2.4 36.3 84 0 32
05:10 1004 29.65 833 24.6 2 35.5 86 -0.1 31.9
05:15 1004 29.65 833 24.6 1.5 34.7 88 -0.3 31.5
05:20 1004 29.65 833 24.6 1.2 34.2 90 -0.3 31.4
05:25 1004 29.65 833 24.6 0.9 33.7 91 -0.4 31.4
05:30 1004 29.65 833 24.6 0.6 33.1 92 -0.5 31.1
05:35 1004 29.65 833 24.6 0.3 32.6 93 -0.6 30.9
05:40 1004 29.65 833 24.6 0.2 32.4 94 -0.7 30.8
05:45 1004 29.65 833 24.6 0.1 32.3 94 -0.7 30.8
05:50 1004 29.65 833 24.6 0.1 32.2 95 -0.6 30.9
05:55 1004 29.65 833 24.6 0.1 32.1 95 -0.6 30.9
06:00 1004 29.65 833 24.6 0.1 32.2 95 -0.6 30.9
06:05 1004 29.65 833 24.6 0.1 32.2 95 -0.5 31
06:10 1004 29.65 833 24.6 0.2 32.3 96 -0.5 31.2
06:15 1004 29.65 833 24.6 0.3 32.5 95 -0.4 31.3
06:20 1004 29.65 833 24.6 0.2 32.4 95 -0.4 31.2
06:25 1004 29.65 833 24.6 0.1 32.3 96 -0.5 31.1
06:30 1004 29.65 833 24.6 0.1 32.2 96 -0.5 31.1
06:35 1004 29.65 833 24.6 0.1 32.1 96 -0.5 31.1
06:40 1004 29.65 833 24.6 0.1 32.1 96 -0.5 31.1
06:45 1004 29.65 833 24.6 0.1 32.1 96 -0.5 31.1
06:50 1004 29.65 833 24.6 0.1 32.1 96 -0.5 31.1
06:55 1004 29.65 833 24.6 0.1 32.2 96 -0.5 31.2
07:00 1003 29.62 833 24.6 0.1 32.2 96 -0.4 31.2
07:05 1003 29.62 832 24.57 0.2 32.3 96 -0.3 31.4
07:10 1003 29.62 832 24.57 0.4 32.7 96 -0.2 31.7
07:15 1003 29.62 833 24.6 0.6 33.1 96 -0 32
07:20 1003 29.62 833 24.6 0.8 33.5 94 -0 31.9
07:25 1003 29.62 833 24.6 1 33.7 93 -0 31.9
07:30 1003 29.62 832 24.57 0.9 33.6 94 -0 32
07:35 1003 29.62 832 24.57 1.1 34 92 -0 32
07:40 1003 29.62 832 24.57 1.1 34 93 0.1 32.1
07:45 1003 29.62 832 24.57 1.1 34 93 0.1 32.1
07:50 1003 29.62 832 24.57 1.1 33.9 93 -0 32
07:55 1003 29.62 833 24.6 0.9 33.6 93 -0.1 31.9
08:00 1003 29.62 833 24.6 0.9 33.6 94 -0 31.9
08:05 1003 29.62 832 24.57 1 33.8 93 0 32.1
08:10 1003 29.62 832 24.57 1.3 34.3 92 0.1 32.2
08:15 1003 29.62 832 24.57 1.5 34.7 92 0.3 32.5
08:20 1003 29.62 832 24.57 1.7 35.1 91 0.4 32.8
08:25 1003 29.62 832 24.57 2.1 35.7 91 0.7 33.2
08:30 1003 29.62 832 24.57 2.5 36.4 89 0.8 33.4
08:35 1003 29.62 832 24.57 2.9 37.2 87 0.9 33.6
08:40 1003 29.62 832 24.57 3.2 37.7 85 1 33.7
08:45 1003 29.62 832 24.57 3.3 37.9 84 0.8 33.4
08:50 1003 29.62 832 24.57 3.4 38.1 83 0.8 33.4
08:55 1003 29.62 832 24.57 3.8 38.8 80 0.7 33.2
09:00 1003 29.62 832 24.57 4.2 39.5 80 1.1 34
09:05 1003 29.62 832 24.57 4.3 39.8 79 1.1 33.9
09:10 1003 29.62 832 24.57 4 39.2 79 0.7 33.3
09:15 1003 29.62 832 24.57 4.2 39.5 79 0.9 33.6
09:20 1003 29.62 832 24.57 4.4 39.9 78 0.8 33.4
09:25 1003 29.62 832 24.57 4.6 40.3 78 1.1 33.9
09:30 1003 29.62 832 24.57 4.5 40.1 77 0.7 33.3
09:35 1003 29.62 832 24.57 4.4 39.9 76 0.5 32.9
09:40 1003 29.62 832 24.57 4.7 40.5 73 0.2 32.4
09:45 1003 29.62 832 24.57 5 41 72 0.4 32.8
09:50 1003 29.62 832 24.57 5 41 73 0.6 33.1
09:55 1003 29.62 832 24.57 4.9 40.8 78 1.3 34.4
10:00 1003 29.62 832 24.57 5.1 41.2 74 0.8 33.5
10:05 1003 29.62 833 24.6 5.4 41.7 73 0.9 33.7
10:10 1003 29.62 833 24.6 5.4 41.8 75 1.3 34.3
10:15 1003 29.62 833 24.6 5.4 41.7 70 0.5 32.8
10:20 1003 29.62 833 24.6 5.2 41.4 73 0.8 33.4
10:25 1003 29.62 833 24.6 5.2 41.4 75 1.2 34.1
10:30 1003 29.62 833 24.6 5.2 41.4 73 0.8 33.5
10:35 1003 29.62 833 24.6 5.4 41.7 71 0.4 32.8
10:40 1003 29.62 833 24.6 5.6 42 71 0.7 33.2
10:45 1003 29.62 833 24.6 5.5 41.9 68 0 32
10:50 1003 29.62 833 24.6 4.9 40.8 70 -0 31.9
10:55 1003 29.62 832 24.57 5 40.9 71 0.1 32.1
11:00 1003 29.62 832 24.57 4.7 40.4 72 0.1 32.2
11:05 1003 29.62 832 24.57 4.5 40.2 72 -0.1 31.8
11:10 1003 29.62 832 24.57 4.5 40.1 66 -1.3 29.7
11:15 1003 29.62 832 24.57 4.3 39.8 63 -2.1 28.2
11:20 1003 29.62 832 24.57 4.4 39.9 60 -2.6 27.3
11:25 1003 29.62 832 24.57 4.9 40.7 59 -2.5 27.5
11:30 1003 29.62 832 24.57 5 41 61 -1.9 28.6
11:35 1003 29.62 832 24.57 5.5 41.8 60 -1.6 29.2
11:40 1003 29.62 832 24.57 5.7 42.2 60 -1.4 29.4
11:45 1003 29.62 832 24.57 5.9 42.6 61 -1 30.2
11:50 1003 29.62 832 24.57 5.9 42.6 64 -0.3 31.4
11:55 1003 29.62 832 24.57 6 42.7 62 -0.8 30.5
12:00 1003 29.62 832 24.57 5.5 41.9 64 -0.7 30.7
12:05 1003 29.62 832 24.57 5.4 41.8 59 -2 28.4
12:10 1003 29.62 832 24.57 5.4 41.7 59 -1.9 28.6
12:15 1003 29.62 832 24.57 6.2 43.1 58 -1.4 29.6
12:20 1003 29.62 832 24.57 6.8 44.2 56 -1.4 29.5
12:25 1003 29.62 832 24.57 6.8 44.2 56 -1.4 29.5
12:30 1003 29.62 832 24.57 6.1 43 63 -0.5 31.1
12:35 1003 29.62 832 24.57 5.1 41.2 68 -0.3 31.5
12:40 1003 29.62 832 24.57 5.3 41.6 64 -0.8 30.5
12:45 1003 29.62 832 24.57 5.5 41.8 65 -0.6 31
12:50 1003 29.62 832 24.57 5.4 41.7 65 -0.7 30.8
12:55 1003 29.62 832 24.57 5.5 41.9 65 -0.5 31
13:00 1003 29.62 832 24.57 4.9 40.8 67 -0.7 30.7
13:05 1003 29.62 832 24.57 4.8 40.6 67 -0.9 30.4
13:10 1003 29.62 832 24.57 4.7 40.5 66 -1 30.1
13:15 1003 29.62 832 24.57 5.1 41.1 65 -0.9 30.3
13:20 1002 29.59 832 24.57 5.3 41.5 66 -0.5 31.1
13:25 1002 29.59 832 24.57 4.8 40.6 65 -1.1 30
13:30 1002 29.59 832 24.57 4.8 40.6 68 -0.6 30.9
13:35 1002 29.59 832 24.57 4.9 40.8 65 -1.1 30
13:40 1002 29.59 832 24.57 5 41 67 -0.7 30.8
13:45 1002 29.59 831 24.54 5 41 67 -0.5 31
13:50 1002 29.59 831 24.54 5.1 41.2 66 -0.7 30.8
13:55 1002 29.59 831 24.54 4.9 40.7 70 -0.1 31.9
14:00 1002 29.59 831 24.54 4.1 39.4 72 -0.4 31.2
14:05 1002 29.59 831 24.54 4.1 39.4 72 -0.5 31.1
14:10 1002 29.59 831 24.54 4.2 39.5 70 -0.8 30.5
14:15 1002 29.59 831 24.54 4.4 40 69 -0.7 30.7
14:20 1002 29.59 831 24.54 5.1 41.2 66 -0.8 30.6
14:25 1002 29.59 831 24.54 5.4 41.7 63 -1.1 30
14:30 1002 29.59 831 24.54 5.7 42.2 62 -1 30.2
14:35 1002 29.59 831 24.54 6.2 43.2 58 -1.4 29.5
14:40 1002 29.59 831 24.54 7 44.6 57 -0.9 30.3
14:45 1002 29.59 831 24.54 7.6 45.7 55 -0.8 30.6
14:50 1002 29.59 831 24.54 7.2 45 56 -0.8 30.5
14:55 1002 29.59 831 24.54 7.1 44.7 56 -1 30.2
15:00 1002 29.59 831 24.54 7.3 45.2 55 -1.1 30
15:05 1002 29.59 831 24.54 6.8 44.3 57 -1.1 30
15:10 1002 29.59 831 24.54 6.6 43.9 57 -1.2 29.8
15:15 1002 29.59 831 24.54 6.3 43.4 57 -1.6 29.2
15:20 1002 29.59 831 24.54 6.6 43.9 55 -1.8 28.8
15:25 1001 29.56 831 24.54 6.7 44.1 54 -2 28.4
15:30 1001 29.56 831 24.54 7 44.7 51 -2.3 27.9
15:35 1001 29.56 831 24.54 7.3 45.1 51 -2.1 28.3
15:40 1001 29.56 831 24.54 7.4 45.2 54 -1.3 29.7
15:45 1001 29.56 831 24.54 7.5 45.6 51 -1.9 28.5
15:50 1001 29.56 831 24.54 7.1 44.8 55 -1.4 29.5
15:55 1001 29.56 831 24.54 6.8 44.3 53 -2.1 28.3
16:00 1001 29.56 831 24.54 6.9 44.4 54 -1.8 28.7
16:05 1001 29.56 831 24.54 6.8 44.2 51 -2.7 27.2
16:10 1001 29.56 831 24.54 7.2 45 48 -3.1 26.4
16:15 1001 29.56 831 24.54 7.5 45.6 47 -3.1 26.5
16:20 1001 29.56 831 24.54 7.5 45.4 48 -2.8 27
16:25 1001 29.56 830 24.51 7.9 46.3 45 -3.3 26.1
16:30 1001 29.56 830 24.51 8 46.4 45 -3.3 26
16:35 1001 29.56 831 24.54 7.8 46.1 45 -3.5 25.7
16:40 1001 29.56 831 24.54 7.6 45.7 45 -3.6 25.5
16:45 1002 29.59 831 24.54 7.2 45 47 -3.4 26
16:50 1002 29.59 831 24.54 6.9 44.5 61 -0.1 31.9
16:55 1002 29.59 831 24.54 5.2 41.3 69 -0 32
17:00 1002 29.59 831 24.54 4.2 39.5 75 0.2 32.4
17:05 1002 29.59 831 24.54 3.2 37.8 79 -0.1 31.9
17:10 1002 29.59 831 24.54 2.8 37.1 81 -0.1 31.8
17:15 1002 29.59 831 24.54 2.1 35.9 84 -0.3 31.5
17:20 1003 29.62 832 24.57 2.1 35.7 84 -0.3 31.5
17:25 1003 29.62 832 24.57 2 35.7 87 0.1 32.2
17:30 1003 29.62 832 24.57 1.8 35.3 88 0.1 32.2
17:35 1003 29.62 832 24.57 1.1 34 91 -0.2 31.6
17:40 1003 29.62 832 24.57 0.7 33.3 93 -0.4 31.3
17:45 1003 29.62 832 24.57 0.5 32.9 93 -0.4 31.2
17:50 1003 29.62 833 24.6 0.4 32.7 94 -0.5 31.1
17:55 1003 29.62 833 24.6 0.3 32.5 95 -0.5 31.1
18:00 1004 29.65 833 24.6 0.3 32.5 95 -0.5 31.2
18:05 1004 29.65 833 24.6 0.2 32.4 95 -0.5 31.1
18:10 1004 29.65 833 24.6 0.3 32.5 95 -0.4 31.2
18:15 1004 29.65 833 24.6 0.2 32.3 95 -0.5 31.1
18:20 1004 29.65 833 24.6 0.2 32.3 95 -0.5 31.1
18:25 1004 29.65 833 24.6 0.1 32.3 95 -0.5 31.1
18:30 1004 29.65 833 24.6 0.2 32.3 95 -0.5 31.1
18:35 1004 29.65 833 24.6 0.1 32.1 96 -0.5 31
18:40 1004 29.65 833 24.6 0 32.1 96 -0.6 31
18:45 1004 29.65 833 24.6 0.1 32.1 96 -0.6 31
18:50 1004 29.65 833 24.6 0.1 32.2 96 -0.5 31.2
18:55 1004 29.65 833 24.6 0.2 32.3 96 -0.4 31.2
19:00 1004 29.65 833 24.6 0.2 32.3 96 -0.4 31.3
19:05 1004 29.65 833 24.6 0.3 32.5 96 -0.3 31.4
19:10 1004 29.65 833 24.6 0.3 32.5 96 -0.3 31.4
19:15 1004 29.65 833 24.6 0.3 32.5 96 -0.3 31.4
19:20 1004 29.65 833 24.6 0.2 32.3 95 -0.5 31.1
19:25 1004 29.65 833 24.6 0.1 32.3 95 -0.6 30.9
19:30 1004 29.65 833 24.6 0.2 32.3 94 -0.6 30.9
19:35 1004 29.65 833 24.6 0.2 32.3 94 -0.7 30.8
19:40 1004 29.65 833 24.6 0.1 32.3 94 -0.7 30.8
19:45 1004 29.65 833 24.6 0.3 32.5 93 -0.8 30.6
19:50 1004 29.65 833 24.6 0.4 32.7 93 -0.7 30.8
19:55 1004 29.65 833 24.6 0.5 32.8 92 -0.7 30.8
20:00 1004 29.65 833 24.6 0.5 33 91 -0.7 30.7
20:05 1004 29.65 833 24.6 0.6 33.1 92 -0.5 31
20:10 1004 29.65 833 24.6 0.5 33 93 -0.5 31.1
20:15 1004 29.65 833 24.6 0.6 33 92 -0.5 31
20:20 1004 29.65 833 24.6 0.4 32.7 93 -0.7 30.8
20:25 1004 29.65 833 24.6 0.2 32.4 94 -0.7 30.8
20:30 1004 29.65 833 24.6 0.1 32.3 94 -0.7 30.7
20:35 1004 29.65 833 24.6 0.1 32.2 94 -0.7 30.7
20:40 1004 29.65 833 24.6 0.1 32.2 94 -0.7 30.8
20:45 1004 29.65 833 24.6 0.1 32.2 94 -0.7 30.7
20:50 1004 29.65 833 24.6 0.1 32.1 95 -0.7 30.7
20:55 1004 29.65 833 24.6 0 32 94 -0.8 30.6
21:00 1004 29.65 833 24.6 -0 32 94 -0.8 30.5
21:05 1004 29.65 833 24.6 0 32 94 -0.9 30.5
21:10 1004 29.65 833 24.6 -0 32 94 -0.9 30.3
21:15 1004 29.65 833 24.6 0 32 93 -0.9 30.3
21:20 1004 29.65 833 24.6 0 32.1 93 -1 30.2
21:25 1004 29.65 833 24.6 0 32 93 -1 30.1
21:30 1004 29.65 833 24.6 0 32 92 -1.1 30
21:35 1004 29.65 833 24.6 -0 32 92 -1.1 29.9
21:40 1004 29.65 833 24.6 0 32 92 -1.2 29.9
21:45 1004 29.65 833 24.6 0.1 32.1 91 -1.2 29.8
21:50 1004 29.65 833 24.6 0.1 32.1 91 -1.3 29.7
21:55 1004 29.65 833 24.6 0.1 32.1 91 -1.2 29.8
22:00 1004 29.65 833 24.6 0 32.1 91 -1.3 29.7
22:05 1004 29.65 833 24.6 0.1 32.1 91 -1.3 29.6
22:10 1004 29.65 833 24.6 0.1 32.1 90 -1.3 29.6
22:15 1004 29.65 833 24.6 0.1 32.2 90 -1.3 29.6
22:20 1004 29.65 833 24.6 0.1 32.1 90 -1.4 29.5
22:25 1004 29.65 833 24.6 0.1 32.1 90 -1.4 29.5
22:30 1004 29.65 833 24.6 0 32.1 90 -1.4 29.5
22:35 1004 29.65 833 24.6 0.1 32.1 90 -1.4 29.5
22:40 1004 29.65 833 24.6 0.1 32.2 90 -1.4 29.5
22:45 1004 29.65 833 24.6 0.1 32.2 90 -1.4 29.5
22:50 1004 29.65 833 24.6 0.1 32.1 90 -1.4 29.4
22:55 1004 29.65 833 24.6 0 32.1 90 -1.4 29.4
23:00 1004 29.65 833 24.6 0.1 32.1 89 -1.5 29.4
23:05 1004 29.65 833 24.6 0.1 32.1 89 -1.5 29.4
23:10 1004 29.65 833 24.6 0.1 32.1 89 -1.5 29.3
23:15 1004 29.65 833 24.6 0.1 32.1 89 -1.5 29.3
23:20 1004 29.65 833 24.6 -0.1 31.9 89 -1.6 29.1
23:25 1004 29.65 834 24.63 -0.1 31.8 89 -1.7 29
23:30 1004 29.65 834 24.63 0 32 88 -1.7 28.9
23:35 1004 29.65 834 24.63 0.1 32.1 88 -1.7 29
23:40 1004 29.65 834 24.63 -0 32 89 -1.7 29
23:45 1004 29.65 834 24.63 -0 31.9 88 -1.7 28.9
23:50 1004 29.65 834 24.63 -0.1 31.9 88 -1.8 28.7
23:55 1004 29.65 834 24.63 -0.2 31.7 89 -1.8 28.7
24:00 1005 29.68 834 24.63 -0 31.9 87 -1.9 28.5